Time;durP1;ratioP1;P1;durP2;ratioP2;P2;SDS_P1;SDS_P2;PMS_P1;PMS_P2;Temp;Humidity;BMP_temperature;BMP_pressure;BME280_temperature;BME280_humidity;BME280_pressure;Samples;Min_cycle;Max_cycle;Signal;HPM_P1;HPM_P2
2022/08/16 00:00:46;;;;;;;6.80;4.40;;;16.70;99.90;;;;;;5101746;28;19943;-65
2022/08/16 00:03:11;;;;;;;7.20;4.05;;;16.70;99.90;;;;;;5097724;28;20032;-66
2022/08/16 00:05:38;;;;;;;7.22;4.40;;;16.70;99.90;;;;;;5102052;28;20483;-66
2022/08/16 00:08:04;;;;;;;11.65;4.35;;;16.70;99.90;;;;;;5094053;28;20036;-65
2022/08/16 00:10:32;;;;;;;;;;;16.60;99.90;;;;;;5102627;28;20046;-66
2022/08/16 00:12:59;;;;;;;6.90;3.70;;;16.50;99.90;;;;;;5093339;28;19931;-66
2022/08/16 00:15:37;;;;;;;8.35;4.25;;;16.50;99.90;;;;;;5097933;28;20412;-65
2022/08/16 00:18:04;;;;;;;6.70;4.40;;;16.50;99.90;;;;;;5079718;28;20076;-67
2022/08/16 00:20:32;;;;;;;5.90;4.35;;;16.50;99.90;;;;;;5085575;28;20040;-66
2022/08/16 00:22:58;;;;;;;5.45;4.70;;;16.40;99.90;;;;;;5086034;28;20101;-66
2022/08/16 00:25:23;;;;;;;;;;;16.40;99.90;;;;;;5087324;28;20035;-67
2022/08/16 00:27:50;;;;;;;8.88;4.63;;;16.40;99.90;;;;;;5078893;28;19960;-65
2022/08/16 00:30:16;;;;;;;8.77;5.35;;;16.40;99.90;;;;;;5085532;28;20436;-65
2022/08/16 00:32:45;;;;;;;6.85;4.70;;;16.30;99.90;;;;;;5083083;28;20080;-65
2022/08/16 00:35:17;;;;;;;6.47;4.75;;;16.30;99.90;;;;;;5081905;28;20041;-66
2022/08/16 00:37:45;;;;;;;5.88;4.25;;;16.30;99.90;;;;;;5075958;28;20052;-65
2022/08/16 00:40:20;;;;;;;7.13;4.30;;;16.30;99.90;;;;;;5088679;28;20115;-66
2022/08/16 00:42:46;;;;;;;5.53;4.07;;;16.30;99.90;;;;;;5083061;28;20048;-66
2022/08/16 00:45:43;;;;;;;9.45;4.60;;;16.30;99.90;;;;;;5083490;28;20037;-66
2022/08/16 00:48:12;;;;;;;9.90;4.78;;;16.30;99.90;;;;;;5071620;28;20450;-65
2022/08/16 00:50:39;;;;;;;6.20;4.32;;;16.20;99.90;;;;;;5085256;28;21289;-66
2022/08/16 00:53:08;;;;;;;6.88;4.00;;;16.20;99.90;;;;;;5083616;28;20036;-66
2022/08/16 00:55:35;;;;;;;7.10;4.15;;;16.30;99.90;;;;;;5087756;28;20055;-66
2022/08/16 00:58:02;;;;;;;5.20;4.32;;;16.30;99.90;;;;;;5082443;28;20046;-65
2022/08/16 01:00:30;;;;;;;8.30;4.45;;;16.30;99.90;;;;;;5086716;28;20067;-65
2022/08/16 01:02:59;;;;;;;8.68;4.28;;;16.30;99.90;;;;;;5086080;28;20036;-66
2022/08/16 01:05:26;;;;;;;5.82;4.15;;;16.40;99.90;;;;;;5087314;28;20044;-65
2022/08/16 01:07:52;;;;;;;6.82;3.75;;;16.40;99.90;;;;;;5082650;28;20519;-65
2022/08/16 01:10:22;;;;;;;8.13;4.53;;;16.40;99.90;;;;;;5088200;28;20031;-65
2022/08/16 01:12:48;;;;;;;7.45;4.00;;;16.40;99.90;;;;;;5080514;28;20242;-66
2022/08/16 01:15:15;;;;;;;;;;;16.40;99.90;;;;;;5075556;28;20670;-65
2022/08/16 01:17:42;;;;;;;5.70;3.42;;;16.40;99.90;;;;;;5079027;28;20292;-65
2022/08/16 01:20:10;;;;;;;5.50;3.78;;;16.30;99.90;;;;;;5086363;28;20036;-65
2022/08/16 01:22:51;;;;;;;7.18;3.60;;;16.40;99.90;;;;;;5082224;28;20060;-65
2022/08/16 01:25:42;;;;;;;8.75;3.88;;;16.40;99.90;;;;;;5085335;28;20039;-65
2022/08/16 01:28:16;;;;;;;5.47;3.60;;;16.40;99.90;;;;;;5073457;28;20100;-65
2022/08/16 01:30:46;;;;;;;6.78;3.75;;;16.40;99.90;;;;;;5081540;28;20131;-66
2022/08/16 01:33:11;;;;;;;6.97;3.78;;;16.30;99.90;;;;;;5073784;28;20033;-66
2022/08/16 01:35:40;;;;;;;;;;;16.30;99.90;;;;;;5087635;28;20488;-67
2022/08/16 01:38:22;;;;;;;7.13;3.60;;;16.30;99.90;;;;;;5077684;28;20440;-66
2022/08/16 01:40:51;;;;;;;5.18;3.47;;;16.30;99.90;;;;;;5084672;28;20455;-65
2022/08/16 01:43:17;;;;;;;6.63;4.28;;;16.30;99.90;;;;;;5086170;28;20382;-65
2022/08/16 01:45:42;;;;;;;;;;;16.30;99.90;;;;;;5080021;28;20715;-65
2022/08/16 01:48:09;;;;;;;8.38;3.28;;;16.30;99.90;;;;;;5078824;28;20303;-66
2022/08/16 01:50:35;;;;;;;5.40;3.03;;;16.20;99.90;;;;;;5084683;28;20051;-65
2022/08/16 01:53:01;;;;;;;4.70;3.15;;;16.30;99.90;;;;;;5085624;28;20039;-66
2022/08/16 01:55:27;;;;;;;;;;;16.30;99.90;;;;;;5087042;28;20036;-66
2022/08/16 01:57:52;;;;;;;4.75;3.40;;;16.40;99.90;;;;;;5085281;28;19923;-65
2022/08/16 02:00:18;;;;;;;;;;;16.40;99.90;;;;;;5085728;28;20036;-65
2022/08/16 02:02:44;;;;;;;4.47;2.70;;;16.40;99.90;;;;;;5081535;28;19920;-66
2022/08/16 02:05:11;;;;;;;6.05;3.45;;;16.40;99.90;;;;;;5085957;28;20032;-66
2022/08/16 02:07:37;;;;;;;5.32;3.50;;;16.40;99.90;;;;;;5081540;28;20040;-66
2022/08/16 02:10:05;;;;;;;5.78;3.20;;;16.50;99.90;;;;;;5085714;28;20047;-65
2022/08/16 02:12:32;;;;;;;4.15;2.80;;;16.50;99.90;;;;;;5082307;28;20110;-65
2022/08/16 02:14:58;;;;;;;3.47;2.72;;;16.50;99.90;;;;;;5079605;28;20496;-65
2022/08/16 02:17:23;;;;;;;;;;;16.50;99.90;;;;;;5073020;28;20036;-65
2022/08/16 02:19:50;;;;;;;3.97;2.88;;;16.50;99.90;;;;;;5086417;28;19916;-65
2022/08/16 02:22:22;;;;;;;5.70;3.20;;;16.50;99.90;;;;;;5084573;28;20036;-65
2022/08/16 02:24:48;;;;;;;6.40;3.10;;;16.50;99.90;;;;;;5084723;28;20651;-65
2022/08/16 02:27:13;;;;;;;;;;;16.50;99.90;;;;;;5082961;28;20051;-65
2022/08/16 02:29:40;;;;;;;7.03;3.42;;;16.50;99.90;;;;;;5085019;28;19949;-65
2022/08/16 02:32:08;;;;;;;4.85;2.85;;;16.40;99.90;;;;;;5080438;28;20116;-66
2022/08/16 02:34:33;;;;;;;4.88;2.70;;;16.40;99.90;;;;;;5083166;28;20495;-65
2022/08/16 02:36:59;;;;;;;;;;;16.40;99.90;;;;;;5084667;28;20061;-65
2022/08/16 02:39:24;;;;;;;4.85;3.20;;;16.40;99.90;;;;;;5083396;28;20038;-65
2022/08/16 02:41:51;;;;;;;;;;;16.40;99.90;;;;;;5072360;28;20040;-65
2022/08/16 02:44:17;;;;;;;5.28;3.22;;;16.50;99.90;;;;;;5077817;28;19927;-65
2022/08/16 02:46:44;;;;;;;3.35;2.47;;;16.50;99.90;;;;;;5074218;28;20043;-65
2022/08/16 02:49:10;;;;;;;6.13;2.80;;;16.50;99.90;;;;;;5076254;28;20040;-65
2022/08/16 02:51:37;;;;;;;10.07;2.90;;;16.50;99.90;;;;;;5084525;28;20044;-65
2022/08/16 02:54:04;;;;;;;2.85;2.42;;;16.50;99.90;;;;;;5079623;28;20501;-65
2022/08/16 02:56:30;;;;;;;3.33;2.40;;;16.50;99.90;;;;;;5083397;28;20619;-65
2022/08/16 02:58:56;;;;;;;;;;;16.50;99.90;;;;;;5079045;28;20039;-64
2022/08/16 03:01:25;;;;;;;5.75;2.75;;;16.40;99.90;;;;;;5079791;28;19924;-66
2022/08/16 03:03:53;;;;;;;6.03;2.88;;;16.50;99.90;;;;;;5079173;28;20036;-65
2022/08/16 03:06:20;;;;;;;2.83;2.30;;;16.50;99.90;;;;;;5083389;28;20093;-64
2022/08/16 03:08:46;;;;;;;4.28;2.40;;;16.50;99.90;;;;;;5079266;28;20040;-65
2022/08/16 03:11:12;;;;;;;6.85;3.28;;;16.50;99.90;;;;;;5081659;28;20036;-65
2022/08/16 03:13:38;;;;;;;;;;;16.60;99.90;;;;;;5077470;28;20111;-65
2022/08/16 03:16:05;;;;;;;4.63;2.47;;;16.60;99.90;;;;;;5076519;28;19993;-65
2022/08/16 03:18:31;;;;;;;3.13;2.30;;;16.60;99.90;;;;;;5075510;28;20102;-65
2022/08/16 03:20:58;;;;;;;3.47;2.80;;;16.60;99.90;;;;;;5086107;28;20066;-65
2022/08/16 03:23:24;;;;;;;3.33;2.35;;;16.60;99.90;;;;;;5074671;28;20044;-66
2022/08/16 03:25:50;;;;;;;7.38;2.40;;;16.60;99.90;;;;;;5085206;28;20051;-65
2022/08/16 03:28:15;;;;;;;;;;;16.60;99.90;;;;;;5074960;28;20029;-65
2022/08/16 03:30:41;;;;;;;2.85;2.10;;;16.60;99.90;;;;;;5083166;28;19916;-65
2022/08/16 03:33:06;;;;;;;;;;;16.60;99.90;;;;;;5076084;28;20063;-65
2022/08/16 03:35:34;;;;;;;3.83;2.35;;;16.60;99.90;;;;;;5084781;28;19947;-65
2022/08/16 03:38:03;;;;;;;4.55;2.38;;;16.60;99.90;;;;;;5075059;28;20096;-65
2022/08/16 03:40:31;;;;;;;3.67;3.10;;;16.60;99.90;;;;;;5084074;28;20676;-65
2022/08/16 03:42:57;;;;;;;4.20;2.45;;;16.70;99.90;;;;;;5072567;28;20547;-66
2022/08/16 03:45:25;;;;;;;;;;;16.70;99.90;;;;;;5078430;28;20044;-65
2022/08/16 03:47:50;;;;;;;3.75;2.78;;;16.70;99.90;;;;;;5073519;28;19963;-65
2022/08/16 03:50:16;;;;;;;;;;;16.60;99.90;;;;;;5085610;28;20068;-64
2022/08/16 03:52:42;;;;;;;3.60;2.80;;;16.60;99.90;;;;;;5079494;28;19917;-65
2022/08/16 03:55:09;;;;;;;5.05;2.63;;;16.60;99.90;;;;;;5085735;28;20093;-65
2022/08/16 03:57:35;;;;;;;3.20;2.90;;;16.60;99.90;;;;;;5083096;28;20055;-65
2022/08/16 04:00:21;;;;;;;;;;;16.50;99.90;;;;;;5085506;28;20044;-65
2022/08/16 04:02:47;;;;;;;3.88;2.53;;;16.60;99.90;;;;;;5082631;28;20375;-65
2022/08/16 04:05:13;;;;;;;;;;;16.60;99.90;;;;;;5088793;28;20058;-65
2022/08/16 04:07:39;;;;;;;4.15;2.80;;;16.50;99.90;;;;;;5082736;28;19926;-66
2022/08/16 04:10:06;;;;;;;4.57;2.83;;;16.50;99.90;;;;;;5088432;28;20044;-65
2022/08/16 04:12:32;;;;;;;6.72;3.38;;;16.50;99.90;;;;;;5083314;28;20484;-65
2022/08/16 04:15:00;;;;;;;4.60;3.13;;;16.40;99.90;;;;;;5086601;28;20039;-65
2022/08/16 04:17:26;;;;;;;5.72;3.63;;;16.40;99.90;;;;;;5077656;28;20047;-66
2022/08/16 04:19:52;;;;;;;;;;;16.40;99.90;;;;;;5084448;28;20047;-65
2022/08/16 04:22:18;;;;;;;5.82;2.90;;;16.50;99.90;;;;;;5081917;28;19984;-65
2022/08/16 04:24:44;;;;;;;6.63;3.35;;;16.50;99.90;;;;;;5084642;28;20068;-65
2022/08/16 04:27:10;;;;;;;5.88;3.30;;;16.50;99.90;;;;;;5085614;28;20132;-65
2022/08/16 04:29:35;;;;;;;;;;;16.60;99.90;;;;;;5079243;28;20119;-65
2022/08/16 04:32:01;;;;;;;6.70;3.42;;;16.60;99.90;;;;;;5084394;28;20139;-65
2022/08/16 04:34:31;;;;;;;5.10;3.50;;;16.60;99.90;;;;;;5079425;28;20532;-65
2022/08/16 04:36:57;;;;;;;10.77;2.85;;;16.60;99.90;;;;;;5077769;28;20506;-65
2022/08/16 04:39:25;;;;;;;6.75;3.90;;;16.60;99.90;;;;;;5079040;28;20093;-65
2022/08/16 04:41:51;;;;;;;7.68;2.95;;;16.70;99.90;;;;;;5085875;28;20170;-65
2022/08/16 04:44:17;;;;;;;7.95;3.38;;;16.80;99.90;;;;;;5083426;28;20559;-65
2022/08/16 04:46:43;;;;;;;;;;;16.80;99.90;;;;;;5077638;28;20051;-65
2022/08/16 04:49:09;;;;;;;4.20;2.80;;;16.90;99.90;;;;;;5080074;28;19916;-65
2022/08/16 04:51:35;;;;;;;5.10;3.60;;;16.90;99.90;;;;;;5085977;28;20079;-65
2022/08/16 04:54:01;;;;;;;;;;;16.90;99.90;;;;;;5079636;28;20508;-65
2022/08/16 04:56:26;;;;;;;8.15;3.65;;;16.90;99.90;;;;;;5085952;28;19916;-64
2022/08/16 04:58:52;;;;;;;;;;;17.00;99.90;;;;;;5084993;28;20028;-65
2022/08/16 05:01:17;;;;;;;5.43;3.38;;;17.10;99.90;;;;;;5086303;28;19919;-65
2022/08/16 05:03:44;;;;;;;5.38;3.65;;;17.30;99.90;;;;;;5082562;28;20050;-65
2022/08/16 05:06:09;;;;;;;6.18;3.22;;;17.30;99.90;;;;;;5079002;28;20048;-66
2022/08/16 05:08:35;;;;;;;;;;;17.40;99.90;;;;;;5079760;28;20147;-66
2022/08/16 05:11:05;;;;;;;8.90;3.35;;;17.50;99.90;;;;;;5087603;28;20299;-65
2022/08/16 05:13:32;;;;;;;6.30;2.63;;;17.60;99.90;;;;;;5084446;28;20036;-64
2022/08/16 05:15:57;;;;;;;4.82;3.25;;;17.70;99.90;;;;;;5081233;28;20174;-65
2022/08/16 05:18:23;;;;;;;;;;;17.70;99.90;;;;;;5075766;28;20782;-63
2022/08/16 05:20:49;;;;;;;8.02;3.25;;;17.70;99.90;;;;;;5086608;28;19930;-61
2022/08/16 05:23:16;;;;;;;;;;;17.70;99.90;;;;;;5083912;28;20020;-61
2022/08/16 05:25:42;;;;;;;6.68;3.28;;;17.60;99.90;;;;;;5078504;28;19950;-65
2022/08/16 05:28:10;;;;;;;9.77;3.92;;;17.60;99.90;;;;;;5079808;28;20040;-61
2022/08/16 05:30:37;;;;;;;5.43;3.42;;;17.50;99.90;;;;;;5078161;28;20024;-61
2022/08/16 05:33:03;;;;;;;6.07;3.08;;;17.50;99.90;;;;;;5080157;28;20040;-62
2022/08/16 05:35:29;;;;;;;6.45;3.65;;;17.50;99.90;;;;;;5076111;28;20068;-62
2022/08/16 05:37:55;;;;;;;;;;;17.50;99.90;;;;;;5072788;28;20068;-64
2022/08/16 05:40:20;;;;;;;5.85;3.83;;;17.50;99.90;;;;;;5075360;28;20403;-64
2022/08/16 05:42:46;;;;;;;;;;;17.40;99.90;;;;;;5079073;28;20043;-64
2022/08/16 05:45:12;;;;;;;5.07;3.60;;;17.40;99.90;;;;;;5079367;28;19995;-65
2022/08/16 05:47:38;;;;;;;;;;;17.40;99.90;;;;;;5078195;28;20049;-65
2022/08/16 05:50:06;;;;;;;6.05;3.42;;;17.40;99.90;;;;;;5087075;28;19916;-64
2022/08/16 05:52:32;;;;;;;6.72;3.78;;;17.50;99.90;;;;;;5079872;28;20036;-63
2022/08/16 05:54:57;;;;;;;8.45;3.78;;;17.60;99.90;;;;;;5073258;28;20567;-64
2022/08/16 05:57:23;;;;;;;;;;;17.70;99.90;;;;;;5071413;28;20280;-64
2022/08/16 05:59:49;;;;;;;8.90;3.97;;;17.80;99.90;;;;;;5081059;28;19961;-64
2022/08/16 06:02:16;;;;;;;7.55;3.95;;;17.80;99.90;;;;;;5078034;28;20158;-64
2022/08/16 06:04:42;;;;;;;7.97;4.03;;;17.90;99.90;;;;;;5082462;28;20067;-64
2022/08/16 06:07:07;;;;;;;;;;;17.80;99.90;;;;;;5077388;28;20557;-65
2022/08/16 06:09:33;;;;;;;8.77;3.80;;;17.80;99.90;;;;;;5075943;28;19920;-65
2022/08/16 06:12:02;;;;;;;4.88;3.28;;;17.80;99.90;;;;;;5075197;28;20044;-65
2022/08/16 06:14:28;;;;;;;8.70;3.78;;;17.90;99.90;;;;;;5075808;28;20043;-64
2022/08/16 06:16:54;;;;;;;12.15;4.97;;;17.80;99.90;;;;;;5080008;28;20527;-63
2022/08/16 06:19:20;;;;;;;;;;;17.80;99.90;;;;;;5078998;28;20033;-66
2022/08/16 06:21:46;;;;;;;6.38;3.80;;;17.90;99.90;;;;;;5084572;28;19915;-64
2022/08/16 06:24:12;;;;;;;;;;;17.90;99.90;;;;;;5077983;28;20061;-67
2022/08/16 06:26:38;;;;;;;7.45;3.83;;;18.00;99.90;;;;;;5074155;28;19930;-66
2022/08/16 06:29:03;;;;;;;;;;;18.10;99.90;;;;;;5075859;28;20051;-66
2022/08/16 06:31:29;;;;;;;7.20;3.72;;;18.30;99.90;;;;;;5080173;28;20372;-66
2022/08/16 06:33:55;;;;;;;10.75;4.03;;;18.50;99.90;;;;;;5076966;28;20040;-61
2022/08/16 06:36:22;;;;;;;10.13;3.92;;;18.50;99.90;;;;;;5076360;28;20044;-65
2022/08/16 06:38:49;;;;;;;5.88;3.47;;;18.50;99.90;;;;;;5077572;28;20142;-64
2022/08/16 06:41:16;;;;;;;9.88;3.40;;;18.50;99.90;;;;;;5083613;28;20047;-64
2022/08/16 06:43:41;;;;;;;5.65;3.50;;;18.40;99.90;;;;;;5084853;28;20078;-65
2022/08/16 06:46:19;;;;;;;;;;;18.40;99.90;;;;;;5077524;28;20048;-65
2022/08/16 06:48:45;;;;;;;7.93;3.58;;;18.50;99.90;;;;;;5077945;28;20541;-64
2022/08/16 06:51:10;;;;;;;;;;;18.50;99.90;;;;;;5085779;28;20058;-65
2022/08/16 06:53:37;;;;;;;5.55;3.35;;;18.50;99.90;;;;;;5085621;28;20015;-64
2022/08/16 06:56:05;;;;;;;13.05;3.70;;;18.60;99.90;;;;;;5085677;28;20040;-64
2022/08/16 06:58:31;;;;;;;7.63;3.30;;;18.60;99.90;;;;;;5083906;28;20122;-65
2022/08/16 07:00:58;;;;;;;7.43;3.75;;;18.70;99.90;;;;;;5075849;28;20044;-64
2022/08/16 07:03:23;;;;;;;4.75;3.22;;;18.70;99.90;;;;;;5082927;28;20111;-64
2022/08/16 07:05:49;;;;;;;;;;;18.80;99.90;;;;;;5086512;28;20554;-64
2022/08/16 07:08:15;;;;;;;3.65;2.90;;;18.90;99.90;;;;;;5079995;28;20448;-64
2022/08/16 07:10:40;;;;;;;;;;;19.00;99.90;;;;;;5086165;28;20127;-64
2022/08/16 07:13:06;;;;;;;4.78;3.25;;;19.20;99.90;;;;;;5082467;28;19954;-64
2022/08/16 07:15:31;;;;;;;8.73;3.35;;;19.30;99.90;;;;;;5078595;28;20409;-65
2022/08/16 07:17:58;;;;;;;8.95;3.65;;;19.40;99.90;;;;;;5077708;28;20043;-65
2022/08/16 07:20:25;;;;;;;9.25;3.35;;;19.40;99.90;;;;;;5086000;28;20040;-64
2022/08/16 07:22:50;;;;;;;4.68;3.00;;;19.60;99.90;;;;;;5082687;28;20036;-65
2022/08/16 07:25:16;;;;;;;;;;;19.70;99.90;;;;;;5083698;28;20043;-64
2022/08/16 07:27:41;;;;;;;6.10;3.33;;;20.00;99.90;;;;;;5079974;28;20336;-64
2022/08/16 07:30:12;;;;;;;6.90;2.78;;;20.10;99.90;;;;;;5090316;28;20113;-64
2022/08/16 07:32:37;;;;;;;3.88;2.83;;;20.30;99.90;;;;;;5079686;28;20140;-64
2022/08/16 07:35:04;;;;;;;;;;;20.40;99.60;;;;;;5090013;28;20131;-64
2022/08/16 07:37:29;;;;;;;4.97;2.80;;;20.60;99.30;;;;;;5083750;28;19916;-65
2022/08/16 07:39:55;;;;;;;;;;;20.70;98.30;;;;;;5086302;28;20047;-64
2022/08/16 07:42:20;;;;;;;5.10;2.80;;;20.80;98.70;;;;;;5080194;28;20520;-64
2022/08/16 07:44:46;;;;;;;3.80;2.60;;;20.90;97.60;;;;;;5085484;28;20089;-64
2022/08/16 07:47:12;;;;;;;7.95;2.80;;;21.10;97.20;;;;;;5084409;28;20115;-65
2022/08/16 07:49:37;;;;;;;;;;;21.20;96.70;;;;;;5084608;28;20213;-64
2022/08/16 07:52:03;;;;;;;3.60;2.40;;;21.30;96.80;;;;;;5087336;28;19915;-65
2022/08/16 07:54:29;;;;;;;7.10;3.17;;;21.40;96.30;;;;;;5082990;28;20678;-64
2022/08/16 07:56:54;;;;;;;7.80;2.78;;;21.40;96.70;;;;;;5079460;28;20103;-65
2022/08/16 07:59:20;;;;;;;3.63;2.17;;;21.60;96.70;;;;;;5084786;28;20484;-65
2022/08/16 08:01:46;;;;;;;3.05;2.20;;;22.20;94.90;;;;;;5090192;28;20088;-65
2022/08/16 08:04:12;;;;;;;3.55;2.25;;;23.20;94.40;;;;;;5079719;28;20039;-65
2022/08/16 08:06:39;;;;;;;6.38;1.88;;;24.00;92.20;;;;;;5084295;28;20043;-64
2022/08/16 08:09:05;;;;;;;9.40;3.28;;;25.30;90.20;;;;;;5078147;28;20064;-65
2022/08/16 08:11:31;;;;;;;8.55;2.22;;;26.50;85.30;;;;;;5087525;28;20067;-64
2022/08/16 08:13:59;;;;;;;8.45;2.10;;;27.20;82.50;;;;;;5080588;28;20173;-65
2022/08/16 08:16:25;;;;;;;28.92;3.15;;;27.80;77.60;;;;;;5078699;28;20122;-62
2022/08/16 08:18:53;;;;;;;4.95;2.30;;;27.70;77.80;;;;;;5079825;28;20052;-62
2022/08/16 08:21:20;;;;;;;6.10;1.92;;;28.20;76.50;;;;;;5082081;28;20118;-62
2022/08/16 08:23:47;;;;;;;4.30;2.00;;;28.80;73.80;;;;;;5079844;28;20047;-65
2022/08/16 08:26:13;;;;;;;3.25;1.77;;;29.70;78.20;;;;;;5080129;28;20086;-65
2022/08/16 08:28:39;;;;;;;2.50;1.90;;;30.30;72.80;;;;;;5082831;28;20048;-65
2022/08/16 08:31:05;;;;;;;2.83;1.67;;;30.60;68.50;;;;;;5088775;28;20578;-65
2022/08/16 08:33:31;;;;;;;4.72;1.90;;;30.60;69.40;;;;;;5083381;28;20040;-62
2022/08/16 08:36:00;;;;;;;9.05;2.10;;;31.40;71.40;;;;;;5087460;28;20046;-62
2022/08/16 08:38:26;;;;;;;4.35;2.05;;;31.20;68.80;;;;;;5076577;28;20037;-62
2022/08/16 08:40:52;;;;;;;3.72;1.80;;;30.80;65.70;;;;;;5079362;28;20051;-63
2022/08/16 08:43:18;;;;;;;7.93;2.33;;;31.00;66.10;;;;;;5079553;28;20032;-62
2022/08/16 08:45:44;;;;;;;4.22;2.17;;;30.30;65.80;;;;;;5078578;28;20041;-62
2022/08/16 08:48:09;;;;;;;4.32;2.35;;;30.30;67.10;;;;;;5077814;28;20036;-62
2022/08/16 08:50:36;;;;;;;4.68;2.10;;;29.80;67.50;;;;;;5083341;28;20506;-64
2022/08/16 08:53:02;;;;;;;5.28;2.33;;;28.80;71.00;;;;;;5083666;28;20032;-64
2022/08/16 08:55:30;;;;;;;3.47;2.63;;;27.70;73.60;;;;;;5079401;28;20051;-64
2022/08/16 08:57:55;;;;;;;5.15;2.60;;;26.60;77.20;;;;;;5072949;28;20040;-64
2022/08/16 09:00:23;;;;;;;5.63;2.95;;;25.80;78.70;;;;;;5075164;28;20040;-65
2022/08/16 09:02:49;;;;;;;4.50;2.90;;;25.40;80.30;;;;;;5083428;28;20097;-64
2022/08/16 09:05:17;;;;;;;4.63;2.70;;;25.30;82.20;;;;;;5085724;28;20028;-65
2022/08/16 09:07:44;;;;;;;5.70;2.83;;;25.10;83.20;;;;;;5078941;28;20052;-65
2022/08/16 09:10:10;;;;;;;6.97;3.15;;;25.20;83.00;;;;;;5084120;28;20037;-65
2022/08/16 09:12:37;;;;;;;4.85;2.70;;;24.90;83.10;;;;;;5080630;28;20081;-64
2022/08/16 09:15:04;;;;;;;3.72;2.25;;;25.00;83.90;;;;;;5080369;28;20113;-65
2022/08/16 09:17:29;;;;;;;5.88;2.90;;;24.90;82.60;;;;;;5082652;28;20679;-65
2022/08/16 09:19:55;;;;;;;5.78;3.03;;;24.80;83.20;;;;;;5083941;28;20085;-66
2022/08/16 09:22:22;;;;;;;5.10;3.05;;;25.00;84.00;;;;;;5079087;28;20412;-65
2022/08/16 09:24:49;;;;;;;7.28;3.28;;;25.10;84.80;;;;;;5086286;28;20039;-67
2022/08/16 09:27:15;;;;;;;9.65;4.22;;;25.10;83.00;;;;;;5083686;28;20043;-66
2022/08/16 09:29:41;;;;;;;7.78;3.08;;;25.30;82.80;;;;;;5078817;28;20040;-66
2022/08/16 09:32:07;;;;;;;5.18;2.80;;;25.10;81.80;;;;;;5088126;28;20058;-66
2022/08/16 09:34:32;;;;;;;10.77;2.92;;;25.00;84.60;;;;;;5084323;28;20040;-66
2022/08/16 09:36:58;;;;;;;5.97;3.10;;;24.90;85.50;;;;;;5084800;28;20040;-66
2022/08/16 09:39:24;;;;;;;9.65;3.25;;;24.70;86.00;;;;;;5078157;28;20119;-66
2022/08/16 09:41:55;;;;;;;6.07;3.15;;;24.50;85.70;;;;;;5080765;28;20039;-65
2022/08/16 09:44:25;;;;;;;8.43;3.15;;;24.40;86.10;;;;;;5078532;28;20431;-66
2022/08/16 09:46:53;;;;;;;6.28;3.13;;;24.10;85.00;;;;;;5075480;28;20044;-66
2022/08/16 09:49:19;;;;;;;8.68;3.63;;;24.00;87.50;;;;;;5081734;28;20495;-67
2022/08/16 09:51:47;;;;;;;6.00;3.60;;;23.90;89.40;;;;;;5084684;28;20028;-66
2022/08/16 09:54:13;;;;;;;4.70;3.22;;;24.10;87.90;;;;;;5084844;28;20438;-67
2022/08/16 09:56:40;;;;;;;6.65;3.55;;;24.40;86.00;;;;;;5084207;28;20036;-66
2022/08/16 09:59:08;;;;;;;9.55;3.70;;;24.50;84.70;;;;;;5076300;28;20109;-66
2022/08/16 10:01:35;;;;;;;8.15;3.80;;;24.80;85.30;;;;;;5083240;28;20496;-66
2022/08/16 10:04:01;;;;;;;6.82;4.03;;;25.00;82.10;;;;;;5081580;28;20032;-66
2022/08/16 10:06:27;;;;;;;6.80;3.30;;;25.10;81.90;;;;;;5084291;28;20044;-65
2022/08/16 10:08:53;;;;;;;10.02;4.20;;;25.20;83.70;;;;;;5078786;28;20555;-66
2022/08/16 10:14:04;;;;;;;6.70;3.58;;;25.10;83.20;;;;;;5081947;28;20369;-66
2022/08/16 10:16:30;;;;;;;8.13;3.05;;;25.10;83.30;;;;;;5076906;28;20065;-66
2022/08/16 10:18:55;;;;;;;7.50;3.35;;;25.20;84.20;;;;;;5072615;28;20734;-66
2022/08/16 10:21:22;;;;;;;5.68;3.25;;;25.50;85.90;;;;;;5084655;28;20047;-66
2022/08/16 10:23:48;;;;;;;5.32;3.28;;;25.60;82.10;;;;;;5079418;28;20043;-66
2022/08/16 10:26:14;;;;;;;5.63;2.97;;;25.40;82.60;;;;;;5078385;28;20067;-66
2022/08/16 10:28:40;;;;;;;7.05;2.80;;;25.10;84.60;;;;;;5077127;28;20377;-67
2022/08/16 10:31:08;;;;;;;6.45;3.05;;;24.90;84.70;;;;;;5087117;28;20128;-64
2022/08/16 10:33:34;;;;;;;6.13;3.17;;;24.60;86.50;;;;;;5076657;28;20076;-66
2022/08/16 10:36:04;;;;;;;8.45;3.80;;;24.80;87.10;;;;;;5085798;28;20467;-65
2022/08/16 10:38:32;;;;;;;7.35;3.85;;;24.80;85.30;;;;;;5080910;28;20093;-67
2022/08/16 10:40:57;;;;;;;6.70;3.33;;;24.70;87.60;;;;;;5077051;28;20487;-64
2022/08/16 10:43:23;;;;;;;10.88;3.60;;;24.40;86.00;;;;;;5070641;28;20036;-65
2022/08/16 10:45:50;;;;;;;6.35;3.42;;;24.30;85.60;;;;;;5071930;28;20063;-64
2022/08/16 10:48:17;;;;;;;6.35;3.70;;;24.40;87.10;;;;;;5076320;28;20029;-65
2022/08/16 10:50:43;;;;;;;7.68;4.00;;;24.70;86.10;;;;;;5074880;28;20102;-62
2022/08/16 10:53:08;;;;;;;8.68;3.40;;;25.00;83.60;;;;;;5074772;28;20036;-64
2022/08/16 10:55:37;;;;;;;7.88;3.47;;;25.10;82.10;;;;;;5075935;28;20129;-64
2022/08/16 10:58:05;;;;;;;10.07;3.30;;;25.10;83.20;;;;;;5076375;28;20089;-64
2022/08/16 11:00:32;;;;;;;7.65;3.40;;;25.30;82.80;;;;;;5081635;28;20063;-64
2022/08/16 11:02:59;;;;;;;6.28;3.65;;;25.40;83.40;;;;;;5076456;28;20032;-65
2022/08/16 11:05:25;;;;;;;7.97;4.18;;;25.30;82.20;;;;;;5081447;28;20040;-62
2022/08/16 11:07:51;;;;;;;7.15;4.38;;;25.10;84.60;;;;;;5077501;28;20280;-63
2022/08/16 11:10:23;;;;;;;7.45;3.10;;;25.00;84.90;;;;;;5081191;28;20072;-64
2022/08/16 11:12:49;;;;;;;7.97;3.67;;;24.90;85.40;;;;;;5074792;28;20454;-63
2022/08/16 11:15:14;;;;;;;8.10;3.85;;;24.70;82.70;;;;;;5080771;28;20044;-63
2022/08/16 11:17:40;;;;;;;5.43;3.60;;;24.60;84.50;;;;;;5091777;28;20052;-63
2022/08/16 11:20:12;;;;;;;7.75;4.28;;;24.60;85.00;;;;;;5072712;28;20064;-64
2022/08/16 11:22:39;;;;;;;9.23;3.38;;;24.50;83.60;;;;;;5071587;28;20036;-64
2022/08/16 11:25:05;;;;;;;10.82;3.33;;;24.40;84.70;;;;;;5075841;28;20460;-63
2022/08/16 11:27:30;;;;;;;6.80;3.85;;;24.50;86.70;;;;;;5068035;28;20105;-63
2022/08/16 11:29:56;;;;;;;8.38;3.70;;;24.70;85.50;;;;;;5078897;28;20044;-64
2022/08/16 11:32:25;;;;;;;5.47;3.30;;;25.00;84.70;;;;;;5073019;28;20063;-64
2022/08/16 11:34:51;;;;;;;4.95;3.47;;;25.30;83.40;;;;;;5076867;28;20047;-63
2022/08/16 11:37:18;;;;;;;5.15;3.05;;;25.10;81.70;;;;;;5072689;28;20115;-64
2022/08/16 11:39:44;;;;;;;6.60;3.00;;;25.00;83.60;;;;;;5075212;28;20040;-64
2022/08/16 11:42:10;;;;;;;6.43;3.47;;;25.00;84.00;;;;;;5072639;28;20369;-63
2022/08/16 11:44:36;;;;;;;3.47;2.90;;;24.80;82.40;;;;;;5076479;28;20871;-63
2022/08/16 11:47:01;;;;;;;6.38;3.50;;;24.80;82.10;;;;;;5069854;28;20568;-64
2022/08/16 11:49:27;;;;;;;4.40;3.30;;;24.70;79.60;;;;;;5073516;28;20566;-63
2022/08/16 11:51:53;;;;;;;4.45;3.28;;;24.80;82.00;;;;;;5077590;28;20032;-63
2022/08/16 11:54:18;;;;;;;5.38;3.20;;;24.70;81.10;;;;;;5078474;28;20040;-63
2022/08/16 11:56:44;;;;;;;8.20;4.30;;;24.70;81.40;;;;;;5074010;28;20044;-63
2022/08/16 11:59:09;;;;;;;7.13;3.13;;;24.90;83.70;;;;;;5074989;28;20485;-64
2022/08/16 12:01:35;;;;;;;5.57;3.42;;;25.00;81.90;;;;;;5075848;28;20183;-63
2022/08/16 12:04:01;;;;;;;5.50;3.75;;;25.00;81.50;;;;;;5069947;28;20032;-65
2022/08/16 12:06:27;;;;;;;5.93;3.72;;;24.90;80.80;;;;;;5066940;28;20048;-61
2022/08/16 12:08:56;;;;;;;6.50;3.47;;;24.90;81.70;;;;;;5082329;28;20063;-62
2022/08/16 12:11:23;;;;;;;5.47;3.13;;;24.90;80.50;;;;;;5083706;28;20107;-62
2022/08/16 12:13:52;;;;;;;5.05;3.28;;;24.90;79.40;;;;;;5085969;28;20685;-62
2022/08/16 12:16:18;;;;;;;10.48;3.53;;;24.90;77.80;;;;;;5079889;28;20039;-62
2022/08/16 12:18:44;;;;;;;7.78;4.10;;;24.90;79.80;;;;;;5081622;28;20048;-62
2022/08/16 12:21:10;;;;;;;7.30;3.30;;;24.90;82.00;;;;;;5088269;28;20032;-63
2022/08/16 12:23:37;;;;;;;6.43;3.42;;;24.70;85.40;;;;;;5083696;28;20122;-62
2022/08/16 12:26:02;;;;;;;6.78;3.60;;;24.80;85.80;;;;;;5083556;28;20047;-63
2022/08/16 12:28:30;;;;;;;8.18;3.70;;;25.00;84.10;;;;;;5082855;28;20040;-63
2022/08/16 12:30:56;;;;;;;7.15;3.50;;;25.30;84.50;;;;;;5091277;28;20132;-62
2022/08/16 12:33:22;;;;;;;5.05;3.03;;;25.50;80.80;;;;;;5083253;28;20036;-62
2022/08/16 12:35:48;;;;;;;6.75;3.10;;;25.70;81.90;;;;;;5087583;28;20036;-61
2022/08/16 12:38:14;;;;;;;7.30;3.80;;;25.70;79.20;;;;;;5080727;28;20032;-61
2022/08/16 12:40:45;;;;;;;7.28;4.15;;;25.60;80.70;;;;;;5086225;28;20035;-61
2022/08/16 12:43:12;;;;;;;10.18;4.32;;;25.40;81.10;;;;;;5082996;28;20855;-62
2022/08/16 12:45:44;;;;;;;10.25;3.97;;;25.20;85.00;;;;;;5084303;28;20036;-62
2022/08/16 12:50:55;;;;;;;9.85;3.67;;;25.20;83.40;;;;;;5078390;28;20036;-61
2022/08/16 12:53:22;;;;;;;6.63;3.40;;;25.10;83.00;;;;;;5080562;28;20039;-62
2022/08/16 12:55:47;;;;;;;14.85;4.53;;;25.00;82.50;;;;;;5083521;28;20040;-65
2022/08/16 12:58:14;;;;;;;4.55;2.97;;;24.90;84.70;;;;;;5076058;28;20036;-63
2022/08/16 13:00:41;;;;;;;7.82;3.42;;;24.80;86.10;;;;;;5075950;28;20066;-64